Time;durP1;ratioP1;P1;durP2;ratioP2;P2;SDS_P1;SDS_P2;PMS_P1;PMS_P2;Temp;Humidity;BMP_temperature;BMP_pressure;BME280_temperature;BME280_humidity;BME280_pressure;Samples;Min_cycle;Max_cycle;Signal;HPM_P1;HPM_P2
2024/01/10 09:41:50;;;;;;;;;;;;;;;1.20;45.39;100924.41;1087748;54;1377;-78
2024/01/10 09:42:51;;;;;;;;;;;;;;;1.39;44.89;100926.25;1087858;46;1338;-78
2024/01/10 09:43:54;;;;;;;;;;;;;;;1.46;44.74;100926.88;1087785;47;1154;-77
2024/01/10 09:44:55;;;;;;;;;;;;;;;1.49;44.36;100930.22;1087886;46;965;-79
2024/01/10 09:46:00;;;;;;;;;;;;;;;1.64;44.07;100936.63;1087770;47;920;-78
2024/01/10 09:47:02;;;;;;;;;;;;;;;1.99;43.53;100928.13;1087642;54;1165;-78
2024/01/10 09:48:05;;;;;;;;;;;;;;;2.25;43.16;100924.31;1086270;47;1034;-77
2024/01/10 09:49:06;;;;;;;;;;;;;;;2.44;42.79;100931.38;1087401;54;1034;-77
2024/01/10 09:50:10;;;;;;;;;;;;;;;2.32;42.86;100923.09;1087651;47;1106;-77
2024/01/10 09:51:11;;;;;;;;;;;;;;;2.55;42.48;100929.09;1087140;47;1845;-78
2024/01/10 09:52:19;;;;;;;;;;;;;;;2.74;42.40;100920.31;1085344;47;1491;-78
2024/01/10 09:53:22;;;;;;;;;;;;;;;2.90;42.12;100928.34;1085420;54;1385;-77
2024/01/10 09:54:28;;;;;;;;;;;;;;;3.03;41.63;100921.56;1086691;47;1115;-79
2024/01/10 09:55:32;;;;;;;;;;;;;;;2.95;41.38;100929.84;1087488;54;1055;-78
2024/01/10 09:56:36;;;;;;;;;;;;;;;3.02;41.41;100926.91;1086500;46;1091;-77
2024/01/10 09:57:39;;;;;;;;;;;;;;;2.89;41.23;100924.00;1086055;46;1158;-77
2024/01/10 09:58:46;;;;;;;;;;;;;;;3.22;40.99;100910.91;1085855;47;1134;-77
2024/01/10 09:59:47;;;;;;;;;;;;;;;3.52;40.86;100918.25;1086115;54;1450;-77
2024/01/10 10:00:51;;;;;;;;;;;;;;;3.72;40.51;100911.06;1087272;47;1470;-77
2024/01/10 10:01:52;;;;;;;;;;;;;;;3.54;40.46;100916.38;1087965;47;1169;-78
2024/01/10 10:02:57;;;;;;;;;;;;;;;3.75;40.11;100913.56;1088138;54;1362;-77
2024/01/10 10:04:02;;;;;;;;;;;;;;;3.88;39.73;100911.97;1088002;46;1003;-79
2024/01/10 10:05:15;;;;;;;;;;;;;;;4.06;39.22;100912.81;1087959;54;950;-78
2024/01/10 10:06:20;;;;;;;;;;;;;;;3.85;39.54;100913.94;1087978;47;967;-80
2024/01/10 10:07:29;;;;;;;;;;;;;;;4.17;38.98;100914.03;1088097;47;852;-78
2024/01/10 10:08:30;;;;;;;;;;;;;;;4.08;38.93;100910.06;1087952;54;995;-78
2024/01/10 10:09:33;;;;;;;;;;;;;;;4.36;38.69;100908.59;1087933;47;971;-77
2024/01/10 10:10:34;;;;;;;;;;;;;;;4.17;38.95;100906.94;1087884;54;1079;-80
2024/01/10 10:11:37;;;;;;;;;;;;;;;4.19;38.95;100910.38;1086983;46;1856;-78
2024/01/10 10:12:47;;;;;;;;;;;;;;;4.36;38.97;100908.59;1086504;54;1372;-77
2024/01/10 10:13:50;;;;;;;;;;;;;;;4.58;38.55;100910.06;1087663;54;1098;-77
2024/01/10 10:14:51;;;;;;;;;;;;;;;4.63;38.16;100908.03;1087593;54;1178;-78
2024/01/10 10:16:02;;;;;;;;;;;;;;;4.71;37.88;100911.09;1087980;54;1013;-77
2024/01/10 10:17:15;;;;;;;;;;;;;;;5.04;37.65;100907.47;1087561;54;954;-77
2024/01/10 10:18:18;;;;;;;;;;;;;;;5.15;37.47;100899.75;1086423;47;1127;-77
2024/01/10 10:19:23;;;;;;;;;;;;;;;4.90;37.55;100902.97;1086579;47;1126;-77
2024/01/10 10:20:26;;;;;;;;;;;;;;;5.01;37.40;100902.34;1087065;47;1043;-77
2024/01/10 10:21:28;;;;;;;;;;;;;;;5.26;37.01;100899.13;1087478;54;1025;-77
2024/01/10 10:22:31;;;;;;;;;;;;;;;5.54;36.91;100894.84;1086453;54;1312;-77
2024/01/10 10:23:31;;;;;;;;;;;;;;;5.70;36.62;100893.94;1086476;47;1107;-76
2024/01/10 10:24:35;;;;;;;;;;;;;;;5.83;36.26;100894.06;1085814;46;1153;-78
2024/01/10 10:25:38;;;;;;;;;;;;;;;5.44;36.57;100897.19;1087375;54;1503;-76
2024/01/10 10:26:41;;;;;;;;;;;;;;;5.55;36.53;100885.09;1087913;54;1003;-77
2024/01/10 10:27:41;;;;;;;;;;;;;;;5.87;36.10;100896.44;1088121;46;1019;-75
2024/01/10 10:28:48;;;;;;;;;;;;;;;5.79;35.89;100896.03;1087816;47;1067;-76
2024/01/10 10:29:49;;;;;;;;;;;;;;;6.02;35.57;100892.00;1087042;47;1162;-78
2024/01/10 10:30:54;;;;;;;;;;;;;;;5.81;35.74;100887.97;1086500;54;1145;-78
2024/01/10 10:31:55;;;;;;;;;;;;;;;5.02;36.24;100893.44;1087667;47;1862;-76
2024/01/10 10:32:56;;;;;;;;;;;;;;;5.37;36.30;100895.00;1087780;54;1244;-77
2024/01/10 10:34:06;;;;;;;;;;;;;;;5.20;36.32;100888.88;1085924;54;1036;-76
2024/01/10 10:35:08;;;;;;;;;;;;;;;4.45;36.77;100897.50;1087271;54;1059;-77
2024/01/10 10:36:13;;;;;;;;;;;;;;;4.29;37.33;100893.97;1088242;54;1057;-78
2024/01/10 10:37:14;;;;;;;;;;;;;;;4.39;37.03;100902.28;1087868;47;1094;-75
2024/01/10 10:38:17;;;;;;;;;;;;;;;4.78;36.79;100899.22;1087799;47;1110;-77
2024/01/10 10:39:18;;;;;;;;;;;;;;;5.24;36.52;100890.41;1088312;47;1008;-78
2024/01/10 10:40:22;;;;;;;;;;;;;;;5.50;35.87;100884.50;1088262;47;1153;-77
2024/01/10 10:41:25;;;;;;;;;;;;;;;5.54;35.88;100886.03;1087166;47;1239;-75
2024/01/10 10:42:28;;;;;;;;;;;;;;;5.76;35.61;100891.75;1086859;54;1415;-77
2024/01/10 10:43:33;;;;;;;;;;;;;;;5.88;35.30;100890.16;1086578;47;1228;-78
2024/01/10 10:44:41;;;;;;;;;;;;;;;5.93;35.25;100897.84;1087388;47;1369;-77
2024/01/10 10:45:49;;;;;;;;;;;;;;;6.14;35.40;100889.56;1085778;54;1128;-76
2024/01/10 10:46:52;;;;;;;;;;;;;;;6.19;34.76;100882.97;1087087;46;1076;-77
2024/01/10 10:47:59;;;;;;;;;;;;;;;6.50;34.68;100878.38;1087236;54;1012;-77
2024/01/10 10:49:03;;;;;;;;;;;;;;;6.61;34.52;100875.06;1087363;47;991;-77
2024/01/10 10:50:08;;;;;;;;;;;;;;;6.56;34.41;100875.31;1087084;47;1084;-76
2024/01/10 10:51:10;;;;;;;;;;;;;;;6.64;34.35;100881.97;1087230;54;1069;-76
2024/01/10 10:52:13;;;;;;;;;;;;;;;6.34;34.18;100878.50;1086691;54;1910;-76
2024/01/10 10:53:15;;;;;;;;;;;;;;;6.33;34.26;100878.63;1086922;54;1425;-77
2024/01/10 10:54:19;;;;;;;;;;;;;;;6.30;34.23;100881.44;1087361;54;1118;-79
2024/01/10 10:55:20;;;;;;;;;;;;;;;6.47;34.35;100880.38;1086564;47;1106;-78
2024/01/10 10:56:26;;;;;;;;;;;;;;;6.45;34.25;100875.19;1086545;54;1086;-76
2024/01/10 10:57:27;;;;;;;;;;;;;;;6.38;34.34;100879.16;1087189;54;1090;-76
2024/01/10 10:58:30;;;;;;;;;;;;;;;6.46;34.32;100879.56;1086877;54;1193;-76
2024/01/10 10:59:33;;;;;;;;;;;;;;;6.48;34.02;100877.63;1086968;54;1426;-76
2024/01/10 11:00:40;;;;;;;;;;;;;;;6.08;34.38;100875.69;1087383;54;1087;-76
2024/01/10 11:01:41;;;;;;;;;;;;;;;6.11;34.73;100876.47;1087327;54;1150;-75
2024/01/10 11:02:44;;;;;;;;;;;;;;;6.00;34.71;100880.63;1087577;54;1358;-75
2024/01/10 11:03:47;;;;;;;;;;;;;;;5.71;35.04;100883.22;1087847;54;1118;-76
2024/01/10 11:04:52;;;;;;;;;;;;;;;6.08;34.44;100875.69;1086907;54;1609;-76
2024/01/10 11:05:54;;;;;;;;;;;;;;;5.70;34.91;100881.50;1087439;47;1122;-76
2024/01/10 11:06:57;;;;;;;;;;;;;;;5.42;35.15;100875.22;1087510;54;1078;-76
2024/01/10 11:08:02;;;;;;;;;;;;;;;5.37;35.30;100889.69;1087352;46;1166;-76
2024/01/10 11:09:07;;;;;;;;;;;;;;;5.28;35.33;100883.16;1087192;54;1123;-76
2024/01/10 11:10:10;;;;;;;;;;;;;;;4.65;36.04;100887.59;1087686;46;1145;-78
2024/01/10 11:11:18;;;;;;;;;;;;;;;4.35;36.50;100897.16;1087568;47;1163;-75
2024/01/10 11:12:29;;;;;;;;;;;;;;;3.90;37.10;100896.88;1087483;54;1853;-77
2024/01/10 11:13:37;;;;;;;;;;;;;;;4.01;37.27;100898.13;1087053;54;1055;-77
2024/01/10 11:14:46;;;;;;;;;;;;;;;3.43;37.86;100898.44;1086090;47;1154;-77
2024/01/10 11:16:05;;;;;;;;;;;;;;;2.97;38.62;100901.56;1087113;54;1079;-76
2024/01/10 11:17:23;;;;;;;;;;;;;;;2.55;39.33;100910.59;1087555;47;1138;-77
2024/01/10 11:18:38;;;;;;;;;;;;;;;2.25;40.04;100903.22;1086579;54;833;-78
2024/01/10 11:19:57;;;;;;;;;;;;;;;2.43;39.75;100905.91;1087995;54;1120;-76
2024/01/10 11:21:06;;;;;;;;;;;;;;;2.34;39.86;100908.06;1087880;54;1099;-76
2024/01/10 11:22:16;;;;;;;;;;;;;;;2.39;39.97;100909.63;1087672;47;1082;-77
2024/01/10 11:23:29;;;;;;;;;;;;;;;2.25;40.18;100907.63;1087549;54;1414;-76
2024/01/10 11:24:33;;;;;;;;;;;;;;;2.29;40.03;100909.19;1087724;54;1118;-76
2024/01/10 11:25:35;;;;;;;;;;;;;;;1.98;40.52;100907.94;1086898;54;1073;-78
2024/01/10 11:26:47;;;;;;;;;;;;;;;2.01;40.61;100906.00;1087039;47;1069;-77
2024/01/10 11:27:52;;;;;;;;;;;;;;;1.69;41.60;100910.06;1087599;54;1400;-76
2024/01/10 11:28:56;;;;;;;;;;;;;;;1.67;41.56;100907.50;1087107;47;1038;-78
2024/01/10 11:29:58;;;;;;;;;;;;;;;1.52;42.00;100908.16;1086825;47;1047;-78
2024/01/10 11:31:04;;;;;;;;;;;;;;;1.16;42.67;100911.41;1087119;47;1060;-76
2024/01/10 11:32:05;;;;;;;;;;;;;;;1.06;42.82;100908.31;1087204;47;1851;-77
2024/01/10 11:33:22;;;;;;;;;;;;;;;1.05;43.17;100910.06;1087496;54;1455;-76
2024/01/10 11:34:25;;;;;;;;;;;;;;;1.27;43.02;100908.34;1087508;54;1110;-75
2024/01/10 11:35:31;;;;;;;;;;;;;;;1.32;42.87;100903.75;1087656;47;1193;-75
2024/01/10 11:36:32;;;;;;;;;;;;;;;1.48;42.45;100899.53;1087559;54;1337;-76
2024/01/10 11:37:41;;;;;;;;;;;;;;;1.50;42.42;100902.13;1087672;54;1123;-75
2024/01/10 11:38:43;;;;;;;;;;;;;;;1.64;42.12;100897.09;1087677;47;1094;-76
2024/01/10 11:39:47;;;;;;;;;;;;;;;1.66;42.01;100900.53;1087794;47;1166;-76
2024/01/10 11:40:48;;;;;;;;;;;;;;;1.39;42.55;100898.16;1087950;47;1051;-75
2024/01/10 11:41:53;;;;;;;;;;;;;;;1.16;43.00;100896.47;1087481;47;1163;-76
2024/01/10 11:42:53;;;;;;;;;;;;;;;1.01;43.76;100899.72;1087667;47;1319;-76
2024/01/10 11:44:09;;;;;;;;;;;;;;;1.10;43.53;100901.97;1086913;47;1052;-77
2024/01/10 11:45:13;;;;;;;;;;;;;;;1.12;43.71;100894.03;1086185;47;1237;-77
2024/01/10 11:46:18;;;;;;;;;;;;;;;1.10;43.69;100901.97;1086991;54;1355;-77
2024/01/10 11:47:22;;;;;;;;;;;;;;;1.27;43.44;100900.44;1086867;54;1151;-77
2024/01/10 11:48:27;;;;;;;;;;;;;;;1.20;43.37;100898.06;1087447;54;1079;-75
2024/01/10 11:49:30;;;;;;;;;;;;;;;1.34;43.39;100899.25;1087883;47;1095;-75
2024/01/10 11:50:31;;;;;;;;;;;;;;;1.39;43.13;100900.78;1087941;47;970;-75
2024/01/10 11:51:35;;;;;;;;;;;;;;;1.53;42.92;100892.28;1087835;47;1047;-75
2024/01/10 11:52:37;;;;;;;;;;;;;;;1.46;42.83;100889.97;1088061;47;1853;-75
2024/01/10 11:53:42;;;;;;;;;;;;;;;1.44;43.30;100884.78;1087759;54;1367;-77
2024/01/10 11:54:44;;;;;;;;;;;;;;;1.60;43.03;100889.38;1087838;54;885;-76
2024/01/10 11:55:53;;;;;;;;;;;;;;;1.46;43.00;100890.84;1087740;54;1124;-77
2024/01/10 11:56:54;;;;;;;;;;;;;;;1.37;43.17;100878.06;1087071;54;1510;-79
2024/01/10 11:58:07;;;;;;;;;;;;;;;1.30;43.50;100888.00;1087030;47;1070;-79
2024/01/10 11:59:11;;;;;;;;;;;;;;;1.25;43.40;100879.41;1085214;47;1126;-76
2024/01/10 12:00:13;;;;;;;;;;;;;;;1.06;44.06;100885.44;1084623;46;1046;-76
2024/01/10 12:01:19;;;;;;;;;;;;;;;1.12;43.81;100880.88;1084162;54;1193;-76
2024/01/10 12:02:20;;;;;;;;;;;;;;;1.26;43.46;100880.28;1084031;54;1333;-76
2024/01/10 12:03:24;;;;;;;;;;;;;;;1.22;43.75;100883.03;1084127;54;1139;-76
2024/01/10 12:04:26;;;;;;;;;;;;;;;1.00;43.92;100880.44;1083994;47;1526;-76
2024/01/10 12:05:30;;;;;;;;;;;;;;;1.06;44.16;100882.81;1083752;47;1166;-75
2024/01/10 12:06:31;;;;;;;;;;;;;;;0.99;44.35;100881.38;1083833;54;1461;-76
2024/01/10 12:07:31;;;;;;;;;;;;;;;1.03;44.35;100877.69;1083793;47;1766;-77
2024/01/10 12:08:35;;;;;;;;;;;;;;;1.11;44.16;100880.00;1083991;47;1172;-76
2024/01/10 12:09:35;;;;;;;;;;;;;;;1.07;44.48;100883.69;1085481;47;1296;-76
2024/01/10 12:10:39;;;;;;;;;;;;;;;0.97;44.68;100883.19;1086222;54;971;-76
2024/01/10 12:11:40;;;;;;;;;;;;;;;1.00;44.35;100880.44;1087522;54;1075;-77
2024/01/10 12:12:43;;;;;;;;;;;;;;;1.11;44.48;100879.16;1087187;54;1848;-77
2024/01/10 12:13:44;;;;;;;;;;;;;;;1.31;43.81;100878.31;1087386;54;1030;-76
2024/01/10 12:14:48;;;;;;;;;;;;;;;1.35;43.71;100879.91;1086573;47;1153;-76
2024/01/10 12:15:49;;;;;;;;;;;;;;;1.42;43.75;100872.59;1086413;47;1154;-77
2024/01/10 12:16:56;;;;;;;;;;;;;;;1.30;43.81;100879.22;1086386;47;1149;-77
2024/01/10 12:17:57;;;;;;;;;;;;;;;1.33;43.96;100872.03;1086806;54;1103;-77
2024/01/10 12:19:00;;;;;;;;;;;;;;;1.28;44.16;100878.44;1087101;54;1101;-76
2024/01/10 12:20:01;;;;;;;;;;;;;;;1.33;44.06;100872.03;1086910;54;1018;-77
2024/01/10 12:21:04;;;;;;;;;;;;;;;1.46;44.01;100871.53;1086656;47;1008;-76
2024/01/10 12:22:05;;;;;;;;;;;;;;;1.54;43.50;100869.41;1086710;54;1455;-77
2024/01/10 12:23:09;;;;;;;;;;;;;;;1.69;43.37;100874.03;1086827;54;1630;-75
2024/01/10 12:24:09;;;;;;;;;;;;;;;1.56;43.69;100872.84;1087208;46;1084;-76
2024/01/10 12:25:14;;;;;;;;;;;;;;;1.62;43.69;100869.94;1085787;54;1127;-76
2024/01/10 12:26:15;;;;;;;;;;;;;;;1.42;43.88;100869.97;1085208;47;1315;-76
2024/01/10 12:27:19;;;;;;;;;;;;;;;1.25;44.09;100874.16;1085545;54;1098;-77
2024/01/10 12:28:20;;;;;;;;;;;;;;;1.42;43.98;100870.81;1085743;54;1083;-77
2024/01/10 12:29:25;;;;;;;;;;;;;;;1.45;43.91;100868.06;1085423;54;1178;-76
2024/01/10 12:30:25;;;;;;;;;;;;;;;1.58;43.79;100867.50;1085886;54;1118;-77
2024/01/10 12:31:29;;;;;;;;;;;;;;;1.58;43.66;100868.38;1085605;54;1143;-77
2024/01/10 12:32:33;;;;;;;;;;;;;;;1.74;43.42;100870.31;1085654;47;1883;-77
2024/01/10 12:33:36;;;;;;;;;;;;;;;1.69;43.51;100874.03;1085622;54;1091;-77
2024/01/10 12:34:38;;;;;;;;;;;;;;;1.44;44.07;100865.47;1085959;46;1167;-77
2024/01/10 12:35:42;;;;;;;;;;;;;;;1.48;43.78;100869.69;1086460;47;1016;-77
2024/01/10 12:36:43;;;;;;;;;;;;;;;1.59;44.04;100870.09;1086863;54;1185;-77
2024/01/10 12:37:55;;;;;;;;;;;;;;;1.61;43.86;100870.84;1086224;47;1072;-77
2024/01/10 12:38:56;;;;;;;;;;;;;;;1.52;44.12;100882.66;1087666;54;1400;-77
2024/01/10 12:40:00;;;;;;;;;;;;;;;1.51;43.96;100869.56;1087733;54;1530;-77
2024/01/10 12:41:00;;;;;;;;;;;;;;;1.62;43.99;100877.84;1087169;54;1130;-76
2024/01/10 12:42:09;;;;;;;;;;;;;;;1.71;43.77;100866.91;1087111;54;1302;-78
2024/01/10 12:43:12;;;;;;;;;;;;;;;1.61;43.80;100875.28;1086977;54;1411;-76
2024/01/10 12:44:17;;;;;;;;;;;;;;;1.79;43.63;100873.63;1087502;46;1120;-76
2024/01/10 12:45:21;;;;;;;;;;;;;;;1.82;43.46;100876.97;1087179;46;1166;-76
2024/01/10 12:46:26;;;;;;;;;;;;;;;1.66;43.58;100871.53;1087218;46;1170;-76
2024/01/10 12:47:34;;;;;;;;;;;;;;;1.43;44.10;100871.66;1087071;54;1098;-75
2024/01/10 12:48:54;;;;;;;;;;;;;;;1.36;44.33;100866.66;1087931;46;1063;-78
2024/01/10 12:50:00;;;;;;;;;;;;;;;1.47;44.07;100867.97;1087455;47;1032;-77
2024/01/10 12:51:05;;;;;;;;;;;;;;;1.35;44.21;100864.94;1087407;54;1102;-76
2024/01/10 12:52:08;;;;;;;;;;;;;;;1.29;44.47;100865.22;1087592;54;1855;-76
2024/01/10 12:53:12;;;;;;;;;;;;;;;1.47;44.34;100873.25;1087622;46;1307;-77
2024/01/10 12:54:13;;;;;;;;;;;;;;;1.67;43.91;100873.25;1087607;47;1137;-78
2024/01/10 12:55:17;;;;;;;;;;;;;;;1.76;43.86;100879.88;1087670;47;1007;-76
2024/01/10 12:56:21;;;;;;;;;;;;;;;1.75;43.85;100879.94;1087568;54;1174;-77
2024/01/10 12:57:27;;;;;;;;;;;;;;;1.52;44.40;100872.13;1087360;54;984;-76
2024/01/10 12:58:29;;;;;;;;;;;;;;;1.38;44.57;100874.47;1087386;54;1172;-77
2024/01/10 12:59:32;;;;;;;;;;;;;;;1.57;44.15;100877.19;1087328;47;1069;-77
2024/01/10 13:00:34;;;;;;;;;;;;;;;1.51;44.55;100874.84;1087102;54;1178;-77
2024/01/10 13:01:38;;;;;;;;;;;;;;;1.54;44.17;100878.19;1086782;54;1079;-77
2024/01/10 13:02:41;;;;;;;;;;;;;;;1.60;44.36;100869.16;1086919;54;1415;-77
2024/01/10 13:03:45;;;;;;;;;;;;;;;1.52;44.42;100877.41;1086552;47;1139;-77
2024/01/10 13:06:28;;;;;;;;;;;;;;;1.34;44.89;100876.41;1086825;47;1119;-76
2024/01/10 13:06:33;;;;;;;;;;;;;;;1.42;44.73;100870.81;1087041;46;1020;-78
2024/01/10 13:07:34;;;;;;;;;;;;;;;1.34;45.01;100868.50;1087276;54;1016;-78
2024/01/10 13:08:49;;;;;;;;;;;;;;;1.28;44.94;100862.63;1087169;47;1033;-78
2024/01/10 13:09:49;;;;;;;;;;;;;;;1.28;45.07;100868.75;1087968;54;1153;-76
2024/01/10 13:10:53;;;;;;;;;;;;;;;1.40;44.80;100870.88;1087969;47;1088;-76
2024/01/10 13:12:01;;;;;;;;;;;;;;;1.58;44.56;100871.00;1087842;54;1044;-77
2024/01/10 13:13:02;;;;;;;;;;;;;;;1.58;44.32;100865.75;1088042;54;1856;-77
2024/01/10 13:14:05;;;;;;;;;;;;;;;1.45;44.93;100867.19;1087999;54;1348;-77
2024/01/10 13:15:07;;;;;;;;;;;;;;;1.54;44.61;100861.50;1088035;46;1059;-76
2024/01/10 13:16:10;;;;;;;;;;;;;;;1.62;44.40;100867.31;1086667;54;1058;-74
2024/01/10 13:17:13;;;;;;;;;;;;;;;1.66;44.54;100868.88;1087588;54;1344;-75
2024/01/10 13:18:17;;;;;;;;;;;;;;;1.60;44.77;100874.44;1087671;54;1101;-78
2024/01/10 13:19:20;;;;;;;;;;;;;;;1.37;45.08;100873.63;1087821;54;1163;-79
2024/01/10 13:20:21;;;;;;;;;;;;;;;1.31;45.39;100884.44;1087952;47;1015;-77
2024/01/10 13:21:25;;;;;;;;;;;;;;;1.39;45.16;100874.44;1087567;54;1226;-76
2024/01/10 13:22:25;;;;;;;;;;;;;;;1.49;44.85;100879.31;1086404;47;1483;-77
2024/01/10 13:23:28;;;;;;;;;;;;;;;1.45;44.99;100875.09;1085940;54;1063;-77
2024/01/10 13:24:30;;;;;;;;;;;;;;;1.62;44.61;100877.00;1086013;47;1071;-76
2024/01/10 13:25:33;;;;;;;;;;;;;;;1.72;44.73;100878.31;1086692;47;1131;-75
2024/01/10 13:26:35;;;;;;;;;;;;;;;1.83;44.57;100872.56;1087448;46;1000;-76
2024/01/10 13:27:38;;;;;;;;;;;;;;;1.66;44.76;100874.16;1088087;47;934;-76
2024/01/10 13:28:40;;;;;;;;;;;;;;;1.74;44.32;100876.47;1087981;47;919;-77
2024/01/10 13:29:49;;;;;;;;;;;;;;;1.75;44.72;100878.16;1088272;46;841;-78
2024/01/10 13:30:52;;;;;;;;;;;;;;;1.67;44.84;100875.88;1087961;54;955;-77
2024/01/10 13:31:56;;;;;;;;;;;;;;;1.61;45.02;100881.41;1087651;46;920;-77
2024/01/10 13:32:57;;;;;;;;;;;;;;;1.62;44.89;100879.63;1086495;47;1858;-78
2024/01/10 13:34:04;;;;;;;;;;;;;;;1.73;44.71;100882.66;1086181;47;1192;-78
2024/01/10 13:35:11;;;;;;;;;;;;;;;1.77;44.81;100880.75;1086637;46;1023;-78
2024/01/10 13:36:15;;;;;;;;;;;;;;;1.74;44.86;100875.59;1086246;54;1173;-78
2024/01/10 13:37:16;;;;;;;;;;;;;;;1.48;45.29;100875.81;1086133;54;1144;-78
2024/01/10 13:38:19;;;;;;;;;;;;;;;1.39;45.33;100877.06;1086093;46;988;-78
2024/01/10 13:39:20;;;;;;;;;;;;;;;1.40;45.56;100877.91;1086347;46;1382;-77
2024/01/10 13:40:26;;;;;;;;;;;;;;;1.42;45.29;100876.09;1086286;54;1099;-77
2024/01/10 13:41:27;;;;;;;;;;;;;;;1.42;45.57;100877.88;1086864;54;1147;-77
2024/01/10 13:42:28;;;;;;;;;;;;;;;1.46;45.39;100867.13;1086290;54;1366;-78
2024/01/10 13:45:13;;;;;;;;;;;;;;;1.53;45.36;100868.56;1087938;47;987;-77
2024/01/10 13:46:14;;;;;;;;;;;;;;;1.48;45.23;100869.69;1088119;54;993;-77
2024/01/10 13:47:35;;;;;;;;;;;;;;;1.35;45.37;100874.63;1088068;46;1031;-79
2024/01/10 13:48:40;;;;;;;;;;;;;;;1.34;45.47;100868.50;1088064;54;1140;-78
2024/01/10 13:49:46;;;;;;;;;;;;;;;1.26;45.60;100864.50;1087962;54;1094;-77
2024/01/10 13:50:56;;;;;;;;;;;;;;;1.15;45.84;100873.69;1088002;54;1117;-77
2024/01/10 13:51:59;;;;;;;;;;;;;;;1.13;46.09;100875.53;1087767;54;1098;-77
2024/01/10 13:53:04;;;;;;;;;;;;;;;1.25;45.80;100879.41;1086849;47;1900;-76
2024/01/10 13:54:07;;;;;;;;;;;;;;;1.25;45.57;100874.16;1085007;47;1024;-76
2024/01/10 13:55:09;;;;;;;;;;;;;;;1.12;45.99;100867.69;1085325;46;1091;-77
2024/01/10 13:56:13;;;;;;;;;;;;;;;0.99;46.19;100873.47;1085500;54;1099;-76
2024/01/10 13:57:13;;;;;;;;;;;;;;;1.05;46.06;100873.19;1085977;54;1092;-75
2024/01/10 13:58:18;;;;;;;;;;;;;;;1.20;46.14;100873.50;1086253;46;1023;-76
2024/01/10 13:59:19;;;;;;;;;;;;;;;1.46;45.32;100868.91;1086096;47;1175;-78
2024/01/10 14:00:20;;;;;;;;;;;;;;;1.52;45.43;100872.13;1085867;54;1154;-75
2024/01/10 14:01:24;;;;;;;;;;;;;;;1.64;45.31;100872.53;1085619;54;1147;-76
2024/01/10 14:02:26;;;;;;;;;;;;;;;1.62;45.10;100875.22;1085618;47;1534;-76
2024/01/10 14:03:29;;;;;;;;;;;;;;;1.45;45.31;100865.41;1085333;54;1168;-75
2024/01/10 14:04:31;;;;;;;;;;;;;;;1.39;45.72;100871.81;1085231;49;1046;-76
2024/01/10 14:05:38;;;;;;;;;;;;;;;1.43;45.52;100871.66;1086384;54;1066;-76
2024/01/10 14:06:39;;;;;;;;;;;;;;;1.39;45.82;100876.19;1087269;54;1088;-77
2024/01/10 14:07:49;;;;;;;;;;;;;;;1.44;45.53;100873.38;1086592;54;1055;-79
2024/01/10 14:08:50;;;;;;;;;;;;;;;1.37;45.63;100868.38;1086242;54;1081;-77
2024/01/10 14:09:54;;;;;;;;;;;;;;;1.29;46.01;100886.28;1086702;54;1082;-77
2024/01/10 14:10:58;;;;;;;;;;;;;;;1.31;45.88;100879.19;1087058;54;1087;-79
2024/01/10 14:11:59;;;;;;;;;;;;;;;1.14;46.24;100879.00;1086152;47;1067;-78
2024/01/10 14:13:03;;;;;;;;;;;;;;;1.31;46.00;100879.19;1086918;47;1851;-76
2024/01/10 14:14:04;;;;;;;;;;;;;;;1.25;45.85;100879.41;1087461;46;1132;-76
2024/01/10 14:15:09;;;;;;;;;;;;;;;1.27;45.94;100885.50;1086605;54;1052;-77
2024/01/10 14:16:10;;;;;;;;;;;;;;;1.32;46.09;100870.34;1087067;54;1162;-78
2024/01/10 14:17:14;;;;;;;;;;;;;;;1.31;46.27;100883.56;1088225;46;1153;-78
2024/01/10 14:18:15;;;;;;;;;;;;;;;1.32;46.33;100880.03;1087964;54;1013;-77
2024/01/10 14:19:19;;;;;;;;;;;;;;;1.17;46.42;100884.16;1086774;46;1101;-77
2024/01/10 14:20:21;;;;;;;;;;;;;;;1.12;46.79;100880.88;1086635;54;1159;-78
2024/01/10 14:21:27;;;;;;;;;;;;;;;1.06;46.85;100880.19;1087943;54;1121;-78
2024/01/10 14:22:28;;;;;;;;;;;;;;;1.35;46.24;100874.63;1087816;47;1402;-77
2024/01/10 14:23:32;;;;;;;;;;;;;;;1.34;46.31;100867.66;1087544;54;1570;-76
2024/01/10 14:24:35;;;;;;;;;;;;;;;1.16;46.41;100878.03;1087092;54;1327;-78
2024/01/10 14:25:40;;;;;;;;;;;;;;;1.28;46.37;100876.66;1087854;54;1051;-76
2024/01/10 14:26:45;;;;;;;;;;;;;;;1.27;46.44;100880.22;1087682;47;1075;-76
2024/01/10 14:27:49;;;;;;;;;;;;;;;1.31;46.60;100879.19;1087785;46;1520;-79
2024/01/10 14:28:52;;;;;;;;;;;;;;;1.46;46.21;100867.13;1088127;54;968;-77
2024/01/10 14:29:56;;;;;;;;;;;;;;;1.55;46.01;100876.41;1088169;54;989;-78
2024/01/10 14:30:56;;;;;;;;;;;;;;;1.55;45.99;100876.41;1088057;54;941;-78
2024/01/10 14:32:00;;;;;;;;;;;;;;;1.41;46.22;100874.38;1087392;54;1135;-79
2024/01/10 14:33:04;;;;;;;;;;;;;;;1.48;46.20;100869.69;1088006;46;1876;-78
2024/01/10 14:34:10;;;;;;;;;;;;;;;1.55;46.10;100876.41;1087540;54;872;-77
2024/01/10 14:35:11;;;;;;;;;;;;;;;1.46;46.00;100874.16;1087474;47;967;-77
2024/01/10 14:36:19;;;;;;;;;;;;;;;1.45;46.32;100868.06;1087818;54;1106;-77
2024/01/10 14:37:23;;;;;;;;;;;;;;;1.43;46.41;100875.16;1088102;47;1047;-78
2024/01/10 14:38:27;;;;;;;;;;;;;;;1.46;46.42;100871.53;1088210;47;992;-77
2024/01/10 14:39:30;;;;;;;;;;;;;;;1.45;46.36;100867.19;1088243;54;1167;-77
2024/01/10 14:40:34;;;;;;;;;;;;;;;1.36;46.57;100866.66;1088237;54;1145;-78
2024/01/10 14:41:34;;;;;;;;;;;;;;;1.41;46.50;100863.81;1088218;54;1006;-78
2024/01/10 14:42:38;;;;;;;;;;;;;;;1.47;46.68;100868.81;1087849;47;1319;-78
2024/01/10 14:43:39;;;;;;;;;;;;;;;1.60;46.54;100873.56;1087946;47;974;-79
2024/01/10 14:44:42;;;;;;;;;;;;;;;1.68;46.25;100874.09;1087390;47;1173;-77
2024/01/10 14:45:44;;;;;;;;;;;;;;;1.67;46.24;100873.25;1087085;54;1040;-78
2024/01/10 14:46:47;;;;;;;;;;;;;;;1.72;46.10;100865.13;1086928;54;1157;-77
2024/01/10 14:47:49;;;;;;;;;;;;;;;1.76;46.09;100868.47;1087373;47;1105;-78
2024/01/10 14:48:53;;;;;;;;;;;;;;;1.71;46.17;100877.44;1087969;46;1035;-79
2024/01/10 14:49:54;;;;;;;;;;;;;;;1.71;46.03;100877.44;1087959;47;891;-78
2024/01/10 14:50:57;;;;;;;;;;;;;;;1.76;46.13;100874.59;1087952;54;1018;-78
2024/01/10 14:51:57;;;;;;;;;;;;;;;1.72;46.18;100878.31;1088034;54;1345;-77
2024/01/10 14:53:04;;;;;;;;;;;;;;;1.79;46.24;100881.53;1087633;47;1862;-77
2024/01/10 14:54:31;;;;;;;;;;;;;;;1.84;46.02;100877.75;1087896;54;1115;-78
2024/01/10 14:57:23;;;;;;;;;;;;;;;1.85;46.20;100883.91;1088144;46;1348;-81
2024/01/10 14:58:23;;;;;;;;;;;;;;;1.94;45.75;100878.22;1088019;54;1001;-79
2024/01/10 14:59:24;;;;;;;;;;;;;;;2.00;45.89;100883.19;1087909;54;1019;-78
2024/01/10 15:00:27;;;;;;;;;;;;;;;2.04;45.79;100878.63;1087985;54;1003;-79
2024/01/10 15:01:32;;;;;;;;;;;;;;;2.08;45.78;100882.03;1088036;54;968;-79
2024/01/10 15:02:36;;;;;;;;;;;;;;;1.84;46.09;100885.66;1088007;47;1226;-80
2024/01/10 15:03:37;;;;;;;;;;;;;;;1.78;46.21;100882.47;1088088;54;1103;-79
2024/01/10 15:04:41;;;;;;;;;;;;;;;1.83;45.97;100883.09;1088024;54;1002;-79
2024/01/10 15:05:46;;;;;;;;;;;;;;;1.89;45.96;100882.81;1087973;47;1390;-78
2024/01/10 15:06:50;;;;;;;;;;;;;;;1.92;45.91;100876.56;1088160;47;1135;-81
2024/01/10 15:07:57;;;;;;;;;;;;;;;1.93;46.03;100884.41;1088243;54;1104;-80
2024/01/10 15:09:05;;;;;;;;;;;;;;;1.77;46.06;100881.59;1088425;54;1084;-79
2024/01/10 15:10:14;;;;;;;;;;;;;;;1.77;46.62;100883.38;1088450;47;958;-78
2024/01/10 15:11:18;;;;;;;;;;;;;;;1.63;46.88;100879.56;1088264;46;1012;-78
2024/01/10 15:12:19;;;;;;;;;;;;;;;1.49;47.01;100879.31;1088075;47;1132;-79
2024/01/10 15:13:32;;;;;;;;;;;;;;;1.60;47.19;100879.72;1088187;47;1867;-78
2024/01/10 15:14:35;;;;;;;;;;;;;;;1.59;46.99;100877.13;1087994;46;966;-79
2024/01/10 15:15:42;;;;;;;;;;;;;;;1.47;47.22;100874.09;1088014;54;1126;-78
2024/01/10 15:16:45;;;;;;;;;;;;;;;1.45;47.46;100875.09;1087590;54;1091;-79
2024/01/10 15:17:50;;;;;;;;;;;;;;;1.46;47.23;100874.16;1088030;46;929;-77
2024/01/10 15:18:51;;;;;;;;;;;;;;;1.43;47.56;100871.66;1087911;47;946;-77
2024/01/10 15:19:55;;;;;;;;;;;;;;;1.54;47.16;100872.06;1088011;54;1028;-78
2024/01/10 15:20:56;;;;;;;;;;;;;;;1.45;47.55;100870.69;1087923;47;997;-78
2024/01/10 15:22:00;;;;;;;;;;;;;;;1.38;47.77;100878.00;1087488;47;964;-79
2024/01/10 15:23:01;;;;;;;;;;;;;;;1.54;47.48;100880.84;1087474;54;1348;-78
2024/01/10 15:24:05;;;;;;;;;;;;;;;1.61;47.45;100880.56;1087983;46;967;-77